sensor_id;sensor_type;location;lat;lon;timestamp;pressure;altitude;pressure_sealevel;temperature;humidity
77153;BME280;66124;51.146;17.072;2023-05-10T00:01:06;100233.73;;;10.17;50.04
77153;BME280;66124;51.146;17.072;2023-05-10T00:03:35;100230.45;;;10.13;49.93
77153;BME280;66124;51.146;17.072;2023-05-10T00:06:05;100228.85;;;10.10;50.23
77153;BME280;66124;51.146;17.072;2023-05-10T00:08:34;100225.30;;;10.07;50.43
77153;BME280;66124;51.146;17.072;2023-05-10T00:11:04;100226.96;;;10.04;50.43
77153;BME280;66124;51.146;17.072;2023-05-10T00:13:34;100219.93;;;9.99;50.48
77153;BME280;66124;51.146;17.072;2023-05-10T00:16:04;100223.11;;;9.94;50.59
77153;BME280;66124;51.146;17.072;2023-05-10T00:18:33;100220.94;;;9.90;50.79
77153;BME280;66124;51.146;17.072;2023-05-10T00:21:03;100220.45;;;9.87;50.81
77153;BME280;66124;51.146;17.072;2023-05-10T00:23:31;100214.94;;;9.83;51.04
77153;BME280;66124;51.146;17.072;2023-05-10T00:27:43;100213.50;;;9.80;51.12
77153;BME280;66124;51.146;17.072;2023-05-10T00:30:13;100213.34;;;9.74;51.36
77153;BME280;66124;51.146;17.072;2023-05-10T00:32:42;100215.33;;;9.69;51.50
77153;BME280;66124;51.146;17.072;2023-05-10T00:35:11;100213.09;;;9.61;51.53
77153;BME280;66124;51.146;17.072;2023-05-10T00:37:41;100213.33;;;9.59;51.63
77153;BME280;66124;51.146;17.072;2023-05-10T00:40:13;100212.70;;;9.54;51.93
77153;BME280;66124;51.146;17.072;2023-05-10T00:42:41;100214.98;;;9.48;52.01
77153;BME280;66124;51.146;17.072;2023-05-10T00:45:11;100211.50;;;9.40;52.16
77153;BME280;66124;51.146;17.072;2023-05-10T00:47:40;100210.99;;;9.33;52.34
77153;BME280;66124;51.146;17.072;2023-05-10T00:50:11;100208.75;;;9.29;52.43
77153;BME280;66124;51.146;17.072;2023-05-10T00:52:40;100202.49;;;9.23;52.63
77153;BME280;66124;51.146;17.072;2023-05-10T00:55:12;100200.90;;;9.17;52.75
77153;BME280;66124;51.146;17.072;2023-05-10T00:57:42;100201.30;;;9.10;52.98
77153;BME280;66124;51.146;17.072;2023-05-10T01:00:14;100198.10;;;9.04;53.21
77153;BME280;66124;51.146;17.072;2023-05-10T01:02:44;100198.38;;;8.99;53.50
77153;BME280;66124;51.146;17.072;2023-05-10T01:05:13;100193.30;;;8.94;53.67
77153;BME280;66124;51.146;17.072;2023-05-10T01:07:43;100199.77;;;8.89;53.74
77153;BME280;66124;51.146;17.072;2023-05-10T01:10:12;100197.63;;;8.85;53.91
77153;BME280;66124;51.146;17.072;2023-05-10T01:12:43;100192.29;;;8.81;54.09
77153;BME280;66124;51.146;17.072;2023-05-10T01:15:14;100192.23;;;8.77;54.16
77153;BME280;66124;51.146;17.072;2023-05-10T01:17:44;100190.27;;;8.71;54.32
77153;BME280;66124;51.146;17.072;2023-05-10T01:20:14;100191.33;;;8.69;54.46
77153;BME280;66124;51.146;17.072;2023-05-10T01:23:18;100193.71;;;8.64;54.67
77153;BME280;66124;51.146;17.072;2023-05-10T01:26:32;100190.89;;;8.59;54.76
77153;BME280;66124;51.146;17.072;2023-05-10T01:29:22;100189.75;;;8.54;55.31
77153;BME280;66124;51.146;17.072;2023-05-10T01:32:18;100189.10;;;8.50;55.26
77153;BME280;66124;51.146;17.072;2023-05-10T01:34:58;100188.42;;;8.45;55.57
77153;BME280;66124;51.146;17.072;2023-05-10T01:37:31;100188.29;;;8.41;55.59
77153;BME280;66124;51.146;17.072;2023-05-10T01:40:11;100192.47;;;8.38;55.81
77153;BME280;66124;51.146;17.072;2023-05-10T01:47:57;100193.66;;;8.32;56.13
77153;BME280;66124;51.146;17.072;2023-05-10T01:50:32;100193.82;;;8.28;56.18
77153;BME280;66124;51.146;17.072;2023-05-10T01:53:02;100193.67;;;8.24;56.54
77153;BME280;66124;51.146;17.072;2023-05-10T01:55:39;100193.16;;;8.21;56.48
77153;BME280;66124;51.146;17.072;2023-05-10T01:58:15;100195.63;;;8.17;56.71
77153;BME280;66124;51.146;17.072;2023-05-10T02:00:47;100187.95;;;8.14;56.78
77153;BME280;66124;51.146;17.072;2023-05-10T02:03:20;100190.19;;;8.11;56.96
77153;BME280;66124;51.146;17.072;2023-05-10T02:05:52;100188.27;;;8.08;56.95
77153;BME280;66124;51.146;17.072;2023-05-10T02:08:21;100186.69;;;8.04;57.32
77153;BME280;66124;51.146;17.072;2023-05-10T02:10:52;100183.10;;;7.99;57.42
77153;BME280;66124;51.146;17.072;2023-05-10T02:13:24;100181.65;;;7.96;57.39
77153;BME280;66124;51.146;17.072;2023-05-10T02:15:54;100177.21;;;7.93;57.59
77153;BME280;66124;51.146;17.072;2023-05-10T02:18:25;100177.58;;;7.92;57.70
77153;BME280;66124;51.146;17.072;2023-05-10T02:20:56;100178.48;;;7.90;57.68
77153;BME280;66124;51.146;17.072;2023-05-10T02:23:26;100171.08;;;7.89;57.65
77153;BME280;66124;51.146;17.072;2023-05-10T02:25:58;100168.84;;;7.88;57.93
77153;BME280;66124;51.146;17.072;2023-05-10T02:28:29;100170.68;;;7.88;57.79
77153;BME280;66124;51.146;17.072;2023-05-10T02:31:00;100170.55;;;7.87;58.01
77153;BME280;66124;51.146;17.072;2023-05-10T02:33:31;100166.61;;;7.86;58.12
77153;BME280;66124;51.146;17.072;2023-05-10T02:36:02;100169.46;;;7.86;58.35
77153;BME280;66124;51.146;17.072;2023-05-10T02:38:34;100171.08;;;7.86;58.20
77153;BME280;66124;51.146;17.072;2023-05-10T02:41:05;100172.73;;;7.85;58.36
77153;BME280;66124;51.146;17.072;2023-05-10T02:43:38;100167.89;;;7.83;58.42
77153;BME280;66124;51.146;17.072;2023-05-10T02:46:09;100167.46;;;7.83;58.26
77153;BME280;66124;51.146;17.072;2023-05-10T02:48:38;100165.98;;;7.83;58.60
77153;BME280;66124;51.146;17.072;2023-05-10T02:51:09;100167.98;;;7.82;58.52
77153;BME280;66124;51.146;17.072;2023-05-10T02:53:44;100164.64;;;7.82;58.46
77153;BME280;66124;51.146;17.072;2023-05-10T02:56:17;100166.94;;;7.82;58.69
77153;BME280;66124;51.146;17.072;2023-05-10T02:58:47;100163.91;;;7.81;58.85
77153;BME280;66124;51.146;17.072;2023-05-10T03:03:59;100167.23;;;7.84;58.61
77153;BME280;66124;51.146;17.072;2023-05-10T03:06:28;100166.48;;;7.81;59.00
77153;BME280;66124;51.146;17.072;2023-05-10T03:08:58;100169.20;;;7.82;58.99
77153;BME280;66124;51.146;17.072;2023-05-10T03:11:43;100167.76;;;7.82;59.05
77153;BME280;66124;51.146;17.072;2023-05-10T03:14:24;100167.98;;;7.82;59.11
77153;BME280;66124;51.146;17.072;2023-05-10T03:17:03;100171.63;;;7.80;59.21
77153;BME280;66124;51.146;17.072;2023-05-10T03:19:43;100169.21;;;7.80;59.26
77153;BME280;66124;51.146;17.072;2023-05-10T03:22:14;100169.02;;;7.80;59.11
77153;BME280;66124;51.146;17.072;2023-05-10T03:24:50;100169.13;;;7.81;59.16
77153;BME280;66124;51.146;17.072;2023-05-10T03:27:23;100170.07;;;7.80;59.10
77153;BME280;66124;51.146;17.072;2023-05-10T03:29:54;100168.57;;;7.79;59.30
77153;BME280;66124;51.146;17.072;2023-05-10T03:32:25;100170.73;;;7.81;59.34
77153;BME280;66124;51.146;17.072;2023-05-10T03:34:54;100171.79;;;7.81;59.30
77153;BME280;66124;51.146;17.072;2023-05-10T03:37:23;100172.05;;;7.83;59.54
77153;BME280;66124;51.146;17.072;2023-05-10T03:39:53;100169.06;;;7.85;59.67
77153;BME280;66124;51.146;17.072;2023-05-10T03:42:22;100168.31;;;7.87;59.34
77153;BME280;66124;51.146;17.072;2023-05-10T03:44:51;100166.31;;;7.89;59.39
77153;BME280;66124;51.146;17.072;2023-05-10T03:47:21;100168.09;;;7.92;59.64
77153;BME280;66124;51.146;17.072;2023-05-10T03:49:50;100167.67;;;7.98;59.63
77153;BME280;66124;51.146;17.072;2023-05-10T03:52:19;100170.59;;;8.05;59.62
77153;BME280;66124;51.146;17.072;2023-05-10T03:54:49;100167.10;;;8.11;59.70
77153;BME280;66124;51.146;17.072;2023-05-10T03:57:18;100162.70;;;8.17;59.49
77153;BME280;66124;51.146;17.072;2023-05-10T03:59:48;100166.97;;;8.23;59.42
77153;BME280;66124;51.146;17.072;2023-05-10T04:02:17;100163.11;;;8.28;59.20
77153;BME280;66124;51.146;17.072;2023-05-10T04:04:47;100158.91;;;8.33;59.38
77153;BME280;66124;51.146;17.072;2023-05-10T04:07:16;100154.49;;;8.38;59.17
77153;BME280;66124;51.146;17.072;2023-05-10T04:09:46;100158.17;;;8.43;59.31
77153;BME280;66124;51.146;17.072;2023-05-10T04:12:15;100160.70;;;8.47;59.22
77153;BME280;66124;51.146;17.072;2023-05-10T04:14:43;100161.18;;;8.52;59.06
77153;BME280;66124;51.146;17.072;2023-05-10T04:25:49;100156.76;;;8.82;58.77
77153;BME280;66124;51.146;17.072;2023-05-10T04:28:19;100156.60;;;8.88;58.59
77153;BME280;66124;51.146;17.072;2023-05-10T04:30:49;100153.88;;;8.95;58.42
77153;BME280;66124;51.146;17.072;2023-05-10T04:33:18;100158.48;;;9.03;58.48
77153;BME280;66124;51.146;17.072;2023-05-10T04:35:47;100157.66;;;9.10;58.22
77153;BME280;66124;51.146;17.072;2023-05-10T04:38:18;100158.94;;;9.18;58.21
77153;BME280;66124;51.146;17.072;2023-05-10T04:40:47;100158.73;;;9.27;57.94
77153;BME280;66124;51.146;17.072;2023-05-10T04:43:17;100154.30;;;9.37;57.88
77153;BME280;66124;51.146;17.072;2023-05-10T04:45:46;100154.98;;;9.46;57.64
77153;BME280;66124;51.146;17.072;2023-05-10T04:48:16;100158.60;;;9.56;57.58
77153;BME280;66124;51.146;17.072;2023-05-10T04:50:45;100157.15;;;9.65;57.25
77153;BME280;66124;51.146;17.072;2023-05-10T04:53:14;100159.31;;;9.75;57.14
77153;BME280;66124;51.146;17.072;2023-05-10T04:55:44;100160.63;;;9.85;56.96
77153;BME280;66124;51.146;17.072;2023-05-10T04:58:13;100164.81;;;9.94;56.84
77153;BME280;66124;51.146;17.072;2023-05-10T05:00:43;100162.66;;;10.04;56.65
77153;BME280;66124;51.146;17.072;2023-05-10T05:03:12;100164.90;;;10.13;56.56
77153;BME280;66124;51.146;17.072;2023-05-10T05:05:41;100159.41;;;10.24;56.15
77153;BME280;66124;51.146;17.072;2023-05-10T05:08:11;100160.05;;;10.35;55.90
77153;BME280;66124;51.146;17.072;2023-05-10T05:10:40;100156.73;;;10.46;55.86
77153;BME280;66124;51.146;17.072;2023-05-10T05:13:10;100155.91;;;10.54;55.25
77153;BME280;66124;51.146;17.072;2023-05-10T05:15:41;100156.81;;;10.68;54.86
77153;BME280;66124;51.146;17.072;2023-05-10T05:18:10;100153.23;;;10.77;54.62
77153;BME280;66124;51.146;17.072;2023-05-10T05:20:40;100151.73;;;10.87;54.02
77153;BME280;66124;51.146;17.072;2023-05-10T05:23:09;100155.49;;;10.98;54.07
77153;BME280;66124;51.146;17.072;2023-05-10T05:25:39;100151.59;;;11.10;53.84
77153;BME280;66124;51.146;17.072;2023-05-10T05:28:08;100148.81;;;11.21;53.30
77153;BME280;66124;51.146;17.072;2023-05-10T05:30:37;100147.73;;;11.33;53.10
77153;BME280;66124;51.146;17.072;2023-05-10T05:33:07;100148.22;;;11.45;52.80
77153;BME280;66124;51.146;17.072;2023-05-10T05:35:36;100147.02;;;11.54;52.42
77153;BME280;66124;51.146;17.072;2023-05-10T05:38:04;100148.09;;;11.65;52.23
77153;BME280;66124;51.146;17.072;2023-05-10T05:45:41;100148.80;;;12.01;51.52
77153;BME280;66124;51.146;17.072;2023-05-10T05:48:10;100150.06;;;12.09;51.02
77153;BME280;66124;51.146;17.072;2023-05-10T05:50:40;100151.45;;;12.19;50.92
77153;BME280;66124;51.146;17.072;2023-05-10T05:53:09;100147.48;;;12.27;50.63
77153;BME280;66124;51.146;17.072;2023-05-10T05:55:39;100150.85;;;12.32;50.23
77153;BME280;66124;51.146;17.072;2023-05-10T05:58:10;100146.69;;;12.36;50.46
77153;BME280;66124;51.146;17.072;2023-05-10T06:00:39;100150.00;;;12.47;50.62
77153;BME280;66124;51.146;17.072;2023-05-10T06:03:09;100146.89;;;12.59;50.36
77153;BME280;66124;51.146;17.072;2023-05-10T06:05:38;100145.59;;;12.72;49.92
77153;BME280;66124;51.146;17.072;2023-05-10T06:08:07;100130.05;;;12.73;49.52
77153;BME280;66124;51.146;17.072;2023-05-10T06:10:37;100145.99;;;12.93;49.15
77153;BME280;66124;51.146;17.072;2023-05-10T06:13:07;100153.02;;;13.04;49.30
77153;BME280;66124;51.146;17.072;2023-05-10T06:15:36;100153.65;;;13.14;48.83
77153;BME280;66124;51.146;17.072;2023-05-10T06:18:05;100153.77;;;13.23;48.71
77153;BME280;66124;51.146;17.072;2023-05-10T06:20:35;100155.17;;;13.31;48.50
77153;BME280;66124;51.146;17.072;2023-05-10T06:23:04;100159.20;;;13.41;48.15
77153;BME280;66124;51.146;17.072;2023-05-10T06:25:34;100161.40;;;13.51;47.98
77153;BME280;66124;51.146;17.072;2023-05-10T06:28:03;100163.98;;;13.61;48.06
77153;BME280;66124;51.146;17.072;2023-05-10T06:30:32;100162.96;;;13.73;47.78
77153;BME280;66124;51.146;17.072;2023-05-10T06:33:02;100159.27;;;13.82;47.53
77153;BME280;66124;51.146;17.072;2023-05-10T06:35:31;100156.70;;;13.88;47.33
77153;BME280;66124;51.146;17.072;2023-05-10T06:38:01;100152.63;;;13.93;47.26
77153;BME280;66124;51.146;17.072;2023-05-10T06:40:30;100150.18;;;14.01;46.86
77153;BME280;66124;51.146;17.072;2023-05-10T06:43:00;100149.09;;;14.06;46.87
77153;BME280;66124;51.146;17.072;2023-05-10T06:45:29;100149.22;;;14.09;46.62
77153;BME280;66124;51.146;17.072;2023-05-10T06:47:59;100147.05;;;14.16;47.10
77153;BME280;66124;51.146;17.072;2023-05-10T06:50:28;100150.58;;;14.27;47.05
77153;BME280;66124;51.146;17.072;2023-05-10T06:52:57;100150.91;;;14.36;46.42
77153;BME280;66124;51.146;17.072;2023-05-10T06:55:26;100150.38;;;14.43;46.43
77153;BME280;66124;51.146;17.072;2023-05-10T06:57:54;100151.99;;;14.52;46.47
77153;BME280;66124;51.146;17.072;2023-05-10T07:06:06;100135.95;;;14.87;45.66
77153;BME280;66124;51.146;17.072;2023-05-10T07:08:34;100140.11;;;14.91;45.61
77153;BME280;66124;51.146;17.072;2023-05-10T07:11:02;100140.37;;;14.95;45.37
77153;BME280;66124;51.146;17.072;2023-05-10T07:13:31;100135.59;;;15.00;45.22
77153;BME280;66124;51.146;17.072;2023-05-10T07:15:58;100140.52;;;15.01;44.93
77153;BME280;66124;51.146;17.072;2023-05-10T07:18:26;100133.73;;;15.05;44.86
77153;BME280;66124;51.146;17.072;2023-05-10T07:20:53;100134.08;;;15.07;44.93
77153;BME280;66124;51.146;17.072;2023-05-10T07:23:21;100127.94;;;15.10;45.10
77153;BME280;66124;51.146;17.072;2023-05-10T07:25:48;100127.30;;;15.15;44.98
77153;BME280;66124;51.146;17.072;2023-05-10T07:35:59;100114.89;;;15.41;45.04
77153;BME280;66124;51.146;17.072;2023-05-10T07:38:28;100114.77;;;15.51;45.05
77153;BME280;66124;51.146;17.072;2023-05-10T07:40:58;100107.51;;;15.60;45.10
77153;BME280;66124;51.146;17.072;2023-05-10T07:43:27;100110.35;;;15.69;44.93
77153;BME280;66124;51.146;17.072;2023-05-10T07:45:57;100106.41;;;15.75;44.96
77153;BME280;66124;51.146;17.072;2023-05-10T07:48:28;100106.97;;;15.80;44.81
77153;BME280;66124;51.146;17.072;2023-05-10T07:50:58;100105.77;;;15.81;44.78
77153;BME280;66124;51.146;17.072;2023-05-10T07:53:28;100106.90;;;15.83;44.68
77153;BME280;66124;51.146;17.072;2023-05-10T07:55:58;100106.46;;;15.86;45.16
77153;BME280;66124;51.146;17.072;2023-05-10T07:58:28;100109.69;;;15.91;44.86
77153;BME280;66124;51.146;17.072;2023-05-10T08:00:58;100109.52;;;15.97;45.00
77153;BME280;66124;51.146;17.072;2023-05-10T08:03:27;100108.20;;;16.05;45.04
77153;BME280;66124;51.146;17.072;2023-05-10T08:05:57;100107.67;;;16.12;45.11
77153;BME280;66124;51.146;17.072;2023-05-10T08:08:29;100105.89;;;16.20;44.95
77153;BME280;66124;51.146;17.072;2023-05-10T08:10:59;100110.48;;;16.30;44.70
77153;BME280;66124;51.146;17.072;2023-05-10T08:13:28;100112.50;;;16.37;44.64
77153;BME280;66124;51.146;17.072;2023-05-10T08:15:58;100109.73;;;16.39;44.46
77153;BME280;66124;51.146;17.072;2023-05-10T08:18:27;100104.50;;;16.38;44.63
77153;BME280;66124;51.146;17.072;2023-05-10T08:20:56;100099.61;;;16.36;44.56
77153;BME280;66124;51.146;17.072;2023-05-10T08:23:26;100096.05;;;16.36;44.84
77153;BME280;66124;51.146;17.072;2023-05-10T08:25:55;100095.90;;;16.39;44.88
77153;BME280;66124;51.146;17.072;2023-05-10T08:28:25;100097.08;;;16.44;44.87
77153;BME280;66124;51.146;17.072;2023-05-10T08:30:55;100092.38;;;16.52;44.68
77153;BME280;66124;51.146;17.072;2023-05-10T08:33:24;100090.57;;;16.61;44.67
77153;BME280;66124;51.146;17.072;2023-05-10T08:35:54;100090.48;;;16.66;44.43
77153;BME280;66124;51.146;17.072;2023-05-10T08:38:23;100092.86;;;16.71;44.57
77153;BME280;66124;51.146;17.072;2023-05-10T08:40:55;100091.23;;;16.79;44.58
77153;BME280;66124;51.146;17.072;2023-05-10T08:43:27;100087.14;;;16.85;44.52
77153;BME280;66124;51.146;17.072;2023-05-10T08:45:55;100092.01;;;16.93;44.50
77153;BME280;66124;51.146;17.072;2023-05-10T08:48:24;100094.64;;;17.05;44.39
77153;BME280;66124;51.146;17.072;2023-05-10T09:01:33;100088.73;;;17.47;43.41
77153;BME280;66124;51.146;17.072;2023-05-10T09:04:03;100087.73;;;17.57;43.19
77153;BME280;66124;51.146;17.072;2023-05-10T09:06:32;100089.70;;;17.63;43.30
77153;BME280;66124;51.146;17.072;2023-05-10T09:09:02;100088.66;;;17.66;42.81
77153;BME280;66124;51.146;17.072;2023-05-10T09:11:32;100085.92;;;17.65;42.88
77153;BME280;66124;51.146;17.072;2023-05-10T09:14:02;100093.05;;;17.69;43.09
77153;BME280;66124;51.146;17.072;2023-05-10T09:16:31;100088.54;;;17.74;42.49
77153;BME280;66124;51.146;17.072;2023-05-10T09:19:01;100082.13;;;17.76;42.53
77153;BME280;66124;51.146;17.072;2023-05-10T09:21:30;100084.39;;;17.81;42.33
77153;BME280;66124;51.146;17.072;2023-05-10T09:24:04;100087.74;;;17.87;42.24
77153;BME280;66124;51.146;17.072;2023-05-10T09:26:34;100089.70;;;17.93;42.25
77153;BME280;66124;51.146;17.072;2023-05-10T09:29:04;100088.30;;;17.99;42.09
77153;BME280;66124;51.146;17.072;2023-05-10T09:31:47;100083.87;;;18.01;41.95
77153;BME280;66124;51.146;17.072;2023-05-10T09:34:19;100088.99;;;18.03;42.18
77153;BME280;66124;51.146;17.072;2023-05-10T09:36:59;100094.58;;;18.09;42.15
77153;BME280;66124;51.146;17.072;2023-05-10T09:39:36;100093.71;;;18.15;42.40
77153;BME280;66124;51.146;17.072;2023-05-10T09:42:07;100100.00;;;18.20;41.91
77153;BME280;66124;51.146;17.072;2023-05-10T09:44:37;100104.70;;;18.22;41.90
77153;BME280;66124;51.146;17.072;2023-05-10T09:47:06;100094.93;;;18.24;41.79
77153;BME280;66124;51.146;17.072;2023-05-10T09:49:36;100092.21;;;18.24;41.74
77153;BME280;66124;51.146;17.072;2023-05-10T09:52:07;100091.75;;;18.23;41.79
77153;BME280;66124;51.146;17.072;2023-05-10T09:54:36;100087.76;;;18.23;41.76
77153;BME280;66124;51.146;17.072;2023-05-10T09:57:06;100088.75;;;18.27;41.72
77153;BME280;66124;51.146;17.072;2023-05-10T09:59:48;100084.64;;;18.32;41.58
77153;BME280;66124;51.146;17.072;2023-05-10T10:02:18;100080.32;;;18.37;41.60
77153;BME280;66124;51.146;17.072;2023-05-10T10:04:50;100076.48;;;18.46;41.38
77153;BME280;66124;51.146;17.072;2023-05-10T10:07:23;100073.06;;;18.53;41.32
77153;BME280;66124;51.146;17.072;2023-05-10T10:09:54;100071.16;;;18.58;41.14
77153;BME280;66124;51.146;17.072;2023-05-10T10:12:22;100063.41;;;18.65;40.92
77153;BME280;66124;51.146;17.072;2023-05-10T10:17:36;100063.52;;;18.87;40.42
77153;BME280;66124;51.146;17.072;2023-05-10T10:20:05;100063.80;;;18.87;39.97
77153;BME280;66124;51.146;17.072;2023-05-10T10:22:35;100063.15;;;18.84;40.30
77153;BME280;66124;51.146;17.072;2023-05-10T10:25:07;100056.52;;;18.89;40.23
77153;BME280;66124;51.146;17.072;2023-05-10T10:27:45;100048.39;;;18.97;39.90
77153;BME280;66124;51.146;17.072;2023-05-10T10:30:23;100048.48;;;19.05;39.65
77153;BME280;66124;51.146;17.072;2023-05-10T10:33:10;100057.20;;;19.13;39.70
77153;BME280;66124;51.146;17.072;2023-05-10T10:35:44;100049.59;;;19.18;39.57
77153;BME280;66124;51.146;17.072;2023-05-10T10:38:15;100053.22;;;19.18;39.68
77153;BME280;66124;51.146;17.072;2023-05-10T10:40:44;100048.54;;;19.25;39.57
77153;BME280;66124;51.146;17.072;2023-05-10T10:43:24;100058.29;;;19.45;39.07
77153;BME280;66124;51.146;17.072;2023-05-10T10:46:14;100054.50;;;19.67;38.62
77153;BME280;66124;51.146;17.072;2023-05-10T10:48:48;100047.04;;;19.88;38.09
77153;BME280;66124;51.146;17.072;2023-05-10T10:51:18;100045.96;;;20.02;38.09
77153;BME280;66124;51.146;17.072;2023-05-10T10:53:49;100054.27;;;20.16;38.13
77153;BME280;66124;51.146;17.072;2023-05-10T10:56:23;100047.53;;;20.27;37.79
77153;BME280;66124;51.146;17.072;2023-05-10T10:58:52;100043.79;;;20.36;37.64
77153;BME280;66124;51.146;17.072;2023-05-10T11:01:22;100045.61;;;20.47;37.27
77153;BME280;66124;51.146;17.072;2023-05-10T11:04:18;100042.96;;;20.62;36.63
77153;BME280;66124;51.146;17.072;2023-05-10T11:06:47;100044.15;;;20.80;36.65
77153;BME280;66124;51.146;17.072;2023-05-10T11:09:17;100043.98;;;20.97;36.47
77153;BME280;66124;51.146;17.072;2023-05-10T11:11:54;100043.61;;;21.15;36.52
77153;BME280;66124;51.146;17.072;2023-05-10T11:14:24;100038.39;;;21.34;36.53
77153;BME280;66124;51.146;17.072;2023-05-10T11:16:54;100036.16;;;21.56;36.22
77153;BME280;66124;51.146;17.072;2023-05-10T11:19:28;100036.36;;;21.79;35.89
77153;BME280;66124;51.146;17.072;2023-05-10T11:22:14;100038.13;;;21.96;35.62
77153;BME280;66124;51.146;17.072;2023-05-10T11:24:57;100046.34;;;22.05;35.40
77153;BME280;66124;51.146;17.072;2023-05-10T11:27:25;100041.05;;;22.15;34.79
77153;BME280;66124;51.146;17.072;2023-05-10T11:29:53;100039.59;;;22.14;34.79
77153;BME280;66124;51.146;17.072;2023-05-10T11:37:31;100033.27;;;22.18;34.53
77153;BME280;66124;51.146;17.072;2023-05-10T11:40:00;100031.11;;;22.17;34.10
77153;BME280;66124;51.146;17.072;2023-05-10T11:42:30;100028.42;;;22.07;34.24
77153;BME280;66124;51.146;17.072;2023-05-10T11:45:01;100022.48;;;22.20;34.12
77153;BME280;66124;51.146;17.072;2023-05-10T11:47:31;100018.67;;;22.52;34.04
77153;BME280;66124;51.146;17.072;2023-05-10T11:50:00;100017.70;;;22.87;33.75
77153;BME280;66124;51.146;17.072;2023-05-10T11:52:30;100023.45;;;23.30;33.39
77153;BME280;66124;51.146;17.072;2023-05-10T11:55:05;100017.73;;;23.68;32.77
77153;BME280;66124;51.146;17.072;2023-05-10T11:57:35;100026.77;;;24.01;32.15
77153;BME280;66124;51.146;17.072;2023-05-10T12:00:07;100018.79;;;24.14;31.65
77153;BME280;66124;51.146;17.072;2023-05-10T12:02:36;100018.52;;;24.01;31.19
77153;BME280;66124;51.146;17.072;2023-05-10T12:05:08;100022.89;;;23.83;31.42
77153;BME280;66124;51.146;17.072;2023-05-10T12:07:38;100022.66;;;23.95;31.27
77153;BME280;66124;51.146;17.072;2023-05-10T12:10:11;100018.42;;;24.09;31.03
77153;BME280;66124;51.146;17.072;2023-05-10T12:12:43;100021.25;;;24.20;31.04
77153;BME280;66124;51.146;17.072;2023-05-10T12:15:16;100017.39;;;24.49;30.47
77153;BME280;66124;51.146;17.072;2023-05-10T12:17:47;100022.02;;;24.66;30.00
77153;BME280;66124;51.146;17.072;2023-05-10T12:20:18;100016.57;;;24.79;29.78
77153;BME280;66124;51.146;17.072;2023-05-10T12:22:50;100017.88;;;25.02;29.49
77153;BME280;66124;51.146;17.072;2023-05-10T12:25:21;100016.55;;;25.28;29.39
77153;BME280;66124;51.146;17.072;2023-05-10T12:27:54;100020.20;;;25.71;28.99
77153;BME280;66124;51.146;17.072;2023-05-10T12:30:25;100019.23;;;26.12;28.25
77153;BME280;66124;51.146;17.072;2023-05-10T12:32:58;100016.63;;;26.12;28.06
77153;BME280;66124;51.146;17.072;2023-05-10T12:35:31;100017.86;;;26.14;28.09
77153;BME280;66124;51.146;17.072;2023-05-10T12:38:01;100019.33;;;26.44;28.11
77153;BME280;66124;51.146;17.072;2023-05-10T12:40:50;100027.05;;;26.73;27.34
77153;BME280;66124;51.146;17.072;2023-05-10T12:43:20;100017.21;;;26.81;26.87
77153;BME280;66124;51.146;17.072;2023-05-10T12:45:49;100013.51;;;26.94;26.66
77153;BME280;66124;51.146;17.072;2023-05-10T12:48:19;100015.42;;;27.00;26.55
77153;BME280;66124;51.146;17.072;2023-05-10T12:53:33;100025.30;;;26.51;26.48
77153;BME280;66124;51.146;17.072;2023-05-10T12:56:02;100024.90;;;26.02;26.78
77153;BME280;66124;51.146;17.072;2023-05-10T12:58:32;100020.24;;;25.66;27.17
77153;BME280;66124;51.146;17.072;2023-05-10T13:01:01;100018.30;;;25.26;27.44
77153;BME280;66124;51.146;17.072;2023-05-10T13:03:31;100022.13;;;24.94;27.90
77153;BME280;66124;51.146;17.072;2023-05-10T13:06:01;100023.02;;;24.72;28.17
77153;BME280;66124;51.146;17.072;2023-05-10T13:08:30;100019.70;;;24.52;28.08
77153;BME280;66124;51.146;17.072;2023-05-10T13:11:00;100019.08;;;24.26;28.18
77153;BME280;66124;51.146;17.072;2023-05-10T13:13:29;100017.26;;;24.20;28.35
77153;BME280;66124;51.146;17.072;2023-05-10T13:15:59;100013.85;;;24.47;28.38
77153;BME280;66124;51.146;17.072;2023-05-10T13:18:28;100017.31;;;24.70;28.18
77153;BME280;66124;51.146;17.072;2023-05-10T13:20:57;100017.48;;;24.94;27.86
77153;BME280;66124;51.146;17.072;2023-05-10T13:23:27;100013.33;;;25.12;27.63
77153;BME280;66124;51.146;17.072;2023-05-10T13:25:57;100009.05;;;25.46;27.70
77153;BME280;66124;51.146;17.072;2023-05-10T13:28:26;100012.60;;;25.70;27.45
77153;BME280;66124;51.146;17.072;2023-05-10T13:30:55;100010.65;;;25.70;27.38
77153;BME280;66124;51.146;17.072;2023-05-10T13:33:25;100008.83;;;25.67;27.23
77153;BME280;66124;51.146;17.072;2023-05-10T13:35:54;100002.73;;;25.56;27.40
77153;BME280;66124;51.146;17.072;2023-05-10T13:38:24;100002.27;;;25.41;27.24
77153;BME280;66124;51.146;17.072;2023-05-10T13:40:53;99998.27;;;25.20;26.84
77153;BME280;66124;51.146;17.072;2023-05-10T13:43:23;100002.31;;;24.95;27.06
77153;BME280;66124;51.146;17.072;2023-05-10T13:45:52;100003.17;;;24.86;27.31
77153;BME280;66124;51.146;17.072;2023-05-10T13:48:22;100000.80;;;24.96;27.17
77153;BME280;66124;51.146;17.072;2023-05-10T13:50:51;99997.44;;;25.13;27.27
77153;BME280;66124;51.146;17.072;2023-05-10T13:53:21;99994.08;;;25.31;27.03
77153;BME280;66124;51.146;17.072;2023-05-10T13:55:51;99995.58;;;25.43;27.07
77153;BME280;66124;51.146;17.072;2023-05-10T13:58:20;99993.95;;;25.41;27.09
77153;BME280;66124;51.146;17.072;2023-05-10T14:00:50;99989.48;;;25.33;27.01